Time;durP1;ratioP1;P1;durP2;ratioP2;P2;SDS_P1;SDS_P2;PMS_P1;PMS_P2;Temp;Humidity;BMP_temperature;BMP_pressure;BME280_temperature;BME280_humidity;BME280_pressure;Samples;Min_cycle;Max_cycle;Signal;HPM_P1;HPM_P2
2023/01/22 00:00:30;;;;;;;6.07;2.38;;;;;;;10.10;100.00;100477.91;5010328;28;20045;-73
2023/01/22 00:02:55;;;;;;;9.13;2.67;;;;;;;10.63;100.00;100563.41;5010281;28;20033;-73
2023/01/22 00:05:21;;;;;;;6.93;2.10;;;;;;;10.61;100.00;100572.81;5010602;28;20034;-73
2023/01/22 00:07:47;;;;;;;5.53;1.77;;;;;;;10.59;100.00;100574.44;5009987;28;20092;-76
2023/01/22 00:10:13;;;;;;;4.78;2.05;;;;;;;10.24;100.00;100517.16;5010535;28;20104;-74
2023/01/22 00:12:39;;;;;;;5.63;2.25;;;;;;;10.63;100.00;100577.22;5010858;28;20113;-74
2023/01/22 00:15:05;;;;;;;5.18;2.13;;;;;;;10.55;100.00;100570.00;5013028;28;20029;-74
2023/01/22 00:17:31;;;;;;;5.25;2.10;;;;;;;10.56;100.00;100575.22;5013640;28;20030;-74
2023/01/22 00:19:56;;;;;;;5.38;1.95;;;;;;;10.14;100.00;100503.91;5014286;28;20091;-73
2023/01/22 00:22:23;;;;;;;5.22;2.22;;;;;;;10.25;100.00;100518.91;5013909;28;20030;-76
2023/01/22 00:24:48;;;;;;;8.27;2.55;;;;;;;10.38;100.00;100540.94;5014125;28;20543;-73
2023/01/22 00:27:14;;;;;;;7.90;2.50;;;;;;;10.64;100.00;100588.41;5013992;28;20076;-73
2023/01/22 00:29:39;;;;;;;10.80;2.45;;;;;;;10.47;100.00;100562.81;5014308;28;20018;-74
2023/01/22 00:32:05;;;;;;;4.60;2.13;;;;;;;10.54;100.00;100581.13;5013769;28;20476;-75
2023/01/22 00:34:31;;;;;;;9.48;2.70;;;;;;;10.59;100.00;100608.91;5013867;28;20109;-74
2023/01/22 00:36:57;;;;;;;6.20;2.58;;;;;;;10.47;100.00;100582.59;5012275;28;20049;-74
2023/01/22 00:39:22;;;;;;;5.97;2.42;;;;;;;10.51;100.00;100587.94;5013717;28;20030;-74
2023/01/22 00:41:48;;;;;;;4.25;2.17;;;;;;;10.20;100.00;100540.25;5013680;28;20563;-77
2023/01/22 00:44:14;;;;;;;7.38;2.42;;;;;;;10.26;100.00;100551.66;5013613;28;20562;-76
2023/01/22 00:46:39;;;;;;;7.00;2.30;;;;;;;10.24;100.00;100540.38;5013497;28;20030;-75
2023/01/22 00:49:05;;;;;;;7.15;1.85;;;;;;;10.60;100.00;100602.91;5008120;28;20094;-75
2023/01/22 00:51:32;;;;;;;7.30;2.40;;;;;;;10.63;100.00;100603.03;4995110;28;20022;-75
2023/01/22 00:53:57;;;;;;;9.00;2.33;;;;;;;10.59;100.00;100601.16;4993346;28;20077;-75
2023/01/22 00:56:23;;;;;;;6.50;2.38;;;;;;;10.61;100.00;100606.38;4993188;28;20026;-76
2023/01/22 00:58:48;;;;;;;7.65;2.05;;;;;;;10.52;100.00;100592.28;4998188;28;20034;-74
2023/01/22 01:01:14;;;;;;;10.30;2.53;;;;;;;10.53;100.00;100590.59;4993235;28;20038;-75
2023/01/22 01:03:40;;;;;;;9.40;2.25;;;;;;;10.57;100.00;100601.91;4990545;28;20042;-75
2023/01/22 01:06:15;;;;;;;5.40;2.03;;;;;;;10.43;100.00;100581.59;5002827;28;20028;-76
2023/01/22 01:08:42;;;;;;;7.47;2.13;;;;;;;10.43;100.00;100575.53;4996186;28;20034;-78
2023/01/22 01:11:20;;;;;;;6.80;2.58;;;;;;;10.51;100.00;100587.94;5001361;28;20065;-76
2023/01/22 01:13:46;;;;;;;6.93;2.22;;;;;;;10.20;100.00;100545.41;5000474;28;20061;-75
2023/01/22 01:16:15;;;;;;;6.85;2.17;;;;;;;10.60;100.00;100605.47;5012095;28;20041;-75
2023/01/22 01:18:41;;;;;;;6.07;2.45;;;;;;;10.52;100.00;100597.44;5012847;28;20030;-75
2023/01/22 01:21:07;;;;;;;7.32;1.88;;;;;;;10.65;100.00;100627.22;5012968;28;20033;-74
2023/01/22 01:23:34;;;;;;;5.30;2.10;;;;;;;10.62;100.00;100626.22;5012002;28;20033;-80
2023/01/22 01:26:03;;;;;;;7.45;1.85;;;;;;;10.61;100.00;100627.91;5012692;28;20036;-75
2023/01/22 01:28:28;;;;;;;5.78;2.45;;;;;;;10.26;100.00;100568.00;5011673;28;20070;-74
2023/01/22 01:30:54;;;;;;;9.23;2.55;;;;;;;10.48;100.00;100600.72;5010195;28;20617;-74
2023/01/22 01:33:19;;;;;;;7.18;2.42;;;;;;;10.13;100.00;100545.09;5011853;28;20045;-74
2023/01/22 01:35:45;;;;;;;7.05;2.60;;;;;;;10.43;100.00;100596.19;5012444;28;20088;-75
2023/01/22 01:38:10;;;;;;;9.70;2.70;;;;;;;10.46;100.00;100601.50;5012172;28;20057;-75
2023/01/22 01:40:42;;;;;;;7.25;2.70;;;;;;;10.57;100.00;100620.84;5011820;28;20117;-74
2023/01/22 01:43:14;;;;;;;7.07;2.78;;;;;;;10.54;100.00;100614.69;5012470;28;20045;-76
2023/01/22 01:45:40;;;;;;;8.52;2.22;;;;;;;10.53;100.00;100621.56;5012513;28;20029;-75
2023/01/22 01:48:23;;;;;;;11.13;2.80;;;;;;;10.56;100.00;100620.81;5012571;28;20026;-75
2023/01/22 01:51:00;;;;;;;7.72;2.70;;;;;;;10.49;100.00;100619.66;5011925;28;20575;-74
2023/01/22 01:53:26;;;;;;;5.75;2.45;;;;;;;10.52;100.00;100618.09;5012014;28;20022;-75
2023/01/22 01:55:54;;;;;;;5.20;2.40;;;;;;;10.40;100.00;100603.81;5012414;28;20033;-76
2023/01/22 01:58:22;;;;;;;6.00;2.20;;;;;;;9.71;100.00;100481.56;4999334;28;20030;-76
2023/01/22 02:00:52;;;;;;;8.82;2.65;;;;;;;10.41;100.00;100590.97;5011943;28;20053;-72
2023/01/22 02:03:19;;;;;;;10.38;2.97;;;;;;;10.54;100.00;100609.53;5012442;28;20408;-74
2023/01/22 02:05:45;;;;;;;8.68;3.00;;;;;;;10.50;100.00;100593.94;4998862;28;20033;-75
2023/01/22 02:08:12;;;;;;;6.45;2.67;;;;;;;10.31;100.00;100563.88;5012233;28;20412;-73
2023/01/22 02:10:38;;;;;;;7.65;2.88;;;;;;;10.45;100.00;100584.25;4999453;28;20022;-71
2023/01/22 02:13:09;;;;;;;6.43;2.72;;;;;;;10.58;100.00;100609.72;5011879;28;20022;-75
2023/01/22 02:15:36;;;;;;;7.95;2.20;;;;;;;10.59;100.00;100601.16;5011804;28;20032;-73
2023/01/22 02:18:02;;;;;;;10.82;2.60;;;;;;;9.97;100.00;100499.75;5011911;28;20033;-73
2023/01/22 02:20:31;;;;;;;7.68;2.78;;;;;;;10.60;100.00;100600.31;5010560;28;20026;-76
2023/01/22 02:22:56;;;;;;;8.18;2.50;;;;;;;10.60;100.00;100602.03;5012270;28;20030;-76
2023/01/22 02:25:22;;;;;;;7.07;2.30;;;;;;;10.57;100.00;100607.09;5011823;28;20393;-75
2023/01/22 02:27:48;;;;;;;5.93;2.78;;;;;;;10.49;100.00;100596.44;5011583;28;20124;-77
2023/01/22 02:30:15;;;;;;;7.07;2.33;;;;;;;10.57;100.00;100602.78;5011832;28;20026;-75
2023/01/22 02:32:40;;;;;;;6.95;2.58;;;;;;;10.32;100.00;100562.22;5011803;28;20113;-75
2023/01/22 02:35:06;;;;;;;6.82;2.58;;;;;;;10.50;100.00;100604.25;5010448;28;20097;-74
2023/01/22 02:37:31;;;;;;;9.52;2.50;;;;;;;10.52;100.00;100607.75;5011089;28;20066;-70
2023/01/22 02:39:57;;;;;;;7.20;2.30;;;;;;;10.54;100.00;100605.22;5011617;28;20026;-72
2023/01/22 02:42:22;;;;;;;7.78;3.22;;;;;;;10.54;100.00;100612.09;5007151;28;20503;-74
2023/01/22 02:44:49;;;;;;;10.32;2.85;;;;;;;10.37;100.00;100578.78;5011457;28;20029;-73
2023/01/22 02:47:14;;;;;;;12.40;3.72;;;;;;;10.19;100.00;100551.41;5011306;28;20025;-73
2023/01/22 02:49:40;;;;;;;9.07;3.13;;;;;;;10.32;100.00;100578.56;5011272;28;20119;-74
2023/01/22 02:52:05;;;;;;;5.80;2.60;;;;;;;10.20;100.00;100550.59;5011542;28;20057;-73
2023/01/22 02:54:31;;;;;;;6.50;2.53;;;;;;;10.37;100.00;100591.69;5011296;28;20502;-74
2023/01/22 02:56:56;;;;;;;5.78;2.60;;;;;;;10.40;100.00;100585.75;5011434;28;20030;-73
2023/01/22 02:59:23;;;;;;;9.45;3.10;;;;;;;10.53;100.00;100613.81;5011265;28;20030;-73
2023/01/22 03:01:49;;;;;;;8.68;2.60;;;;;;;10.45;100.00;100597.16;5011236;28;20057;-74
2023/01/22 03:04:15;;;;;;;8.43;2.78;;;;;;;10.55;100.00;100625.06;5010599;28;20451;-73
2023/01/22 03:06:43;;;;;;;11.18;2.70;;;;;;;10.20;100.00;100563.47;5011316;28;20034;-74
2023/01/22 03:09:11;;;;;;;12.80;2.72;;;;;;;10.14;100.00;100539.13;5009728;28;20032;-73
2023/01/22 03:11:38;;;;;;;7.35;2.30;;;;;;;10.64;100.00;100624.56;5011108;28;20127;-74
2023/01/22 03:22:17;;;;;;;11.30;2.95;;;;;;;10.16;100.00;100568.44;5009944;28;20088;-74
2023/01/22 03:24:43;;;;;;;7.93;2.25;;;;;;;10.48;100.00;100623.97;5011021;28;20040;-75
2023/01/22 03:27:08;;;;;;;7.20;2.60;;;;;;;10.42;100.00;100605.66;5010074;28;20109;-73
2023/01/22 03:29:37;;;;;;;8.15;2.83;;;;;;;10.49;100.00;100617.09;5010947;28;20026;-73
2023/01/22 03:32:03;;;;;;;7.65;2.90;;;;;;;9.74;100.00;100489.41;5010807;28;20033;-75
2023/01/22 03:34:29;;;;;;;8.13;2.50;;;;;;;10.46;100.00;100623.00;5010498;28;20025;-73
2023/01/22 03:36:54;;;;;;;5.90;2.20;;;;;;;10.57;100.00;100640.66;5010955;28;20050;-74
2023/01/22 03:39:20;;;;;;;6.40;2.60;;;;;;;10.46;100.00;100623.00;5010730;28;20468;-73
2023/01/22 03:41:45;;;;;;;7.40;2.25;;;;;;;10.54;100.00;100635.34;5010302;28;20025;-74
2023/01/22 03:44:13;;;;;;;10.07;3.13;;;;;;;10.61;100.00;100637.34;5009091;28;20041;-72
2023/01/22 03:46:39;;;;;;;8.60;3.03;;;;;;;10.49;100.00;100632.56;5010038;28;20519;-74
2023/01/22 03:49:06;;;;;;;9.98;2.80;;;;;;;10.54;100.00;100638.78;5010591;28;20033;-73
2023/01/22 03:51:32;;;;;;;10.25;3.20;;;;;;;10.62;100.00;100646.88;5010771;28;20491;-74
2023/01/22 03:53:58;;;;;;;5.50;2.35;;;;;;;10.60;100.00;100651.94;5010351;28;20014;-73
2023/01/22 03:56:24;;;;;;;9.40;2.85;;;;;;;10.59;100.00;100647.63;5010400;28;20029;-74
2023/01/22 03:58:50;;;;;;;7.95;2.58;;;;;;;10.58;100.00;100653.59;5008223;28;20044;-73
2023/01/22 04:01:19;;;;;;;9.48;3.03;;;;;;;10.18;100.00;100590.91;5010624;28;20065;-76
2023/01/22 04:03:44;;;;;;;7.40;3.00;;;;;;;10.00;100.00;100561.78;5010220;28;20044;-71
2023/01/22 04:06:11;;;;;;;12.77;3.78;;;;;;;10.59;100.00;100665.69;5010247;28;20469;-72
2023/01/22 04:08:39;;;;;;;8.23;2.97;;;;;;;10.59;100.00;100664.81;5010318;28;20022;-72
2023/01/22 04:11:05;;;;;;;10.52;2.63;;;;;;;10.59;100.00;100663.13;5010364;28;20034;-73
2023/01/22 04:13:33;;;;;;;10.20;3.17;;;;;;;10.60;100.00;100667.44;5010431;28;20034;-72
2023/01/22 04:15:58;;;;;;;8.60;2.90;;;;;;;10.66;100.00;100677.13;5010613;28;20025;-72
2023/01/22 04:18:24;;;;;;;9.88;3.42;;;;;;;10.69;100.00;100669.50;5009972;28;20026;-75
2023/01/22 04:20:50;;;;;;;9.68;3.40;;;;;;;10.68;100.00;100673.81;5009696;28;20057;-74
2023/01/22 04:23:17;;;;;;;5.97;3.05;;;;;;;10.68;100.00;100678.97;5009785;28;20526;-73
2023/01/22 04:25:43;;;;;;;11.70;3.40;;;;;;;10.70;100.00;100678.16;5010395;28;20034;-74
2023/01/22 04:28:09;;;;;;;9.15;3.38;;;;;;;10.51;100.00;100665.38;5010284;28;20033;-75
2023/01/22 04:30:36;;;;;;;7.35;2.80;;;;;;;10.69;100.00;100697.91;5010493;28;20026;-74
2023/01/22 04:33:01;;;;;;;7.70;3.20;;;;;;;10.22;100.00;100616.81;5009973;28;20641;-73
2023/01/22 04:35:27;;;;;;;8.20;3.22;;;;;;;10.59;100.00;100686.34;5010022;28;20061;-72
2023/01/22 04:37:53;;;;;;;12.45;3.05;;;;;;;10.58;100.00;100681.09;5009904;28;20046;-72
2023/01/22 04:40:19;;;;;;;9.55;2.95;;;;;;;10.72;100.00;100698.03;5010079;28;20108;-74
2023/01/22 04:42:45;;;;;;;9.27;3.20;;;;;;;10.75;100.00;100699.88;4991159;28;20026;-75
2023/01/22 04:45:10;;;;;;;11.60;3.72;;;;;;;10.72;100.00;100703.22;5003448;28;20042;-74
2023/01/22 04:47:43;;;;;;;9.93;3.30;;;;;;;10.66;100.00;100709.00;4989994;28;20022;-76
2023/01/22 04:50:16;;;;;;;13.35;3.25;;;;;;;10.55;100.00;100691.31;4993691;28;20042;-74
2023/01/22 04:52:41;;;;;;;11.57;3.40;;;;;;;10.67;100.00;100712.47;5009290;28;20029;-77
2023/01/22 04:55:09;;;;;;;6.75;3.60;;;;;;;10.63;100.00;100705.41;5008746;28;20038;-74
2023/01/22 04:57:34;;;;;;;9.90;3.97;;;;;;;10.64;100.00;100715.81;5009896;28;20104;-75
2023/01/22 05:00:00;;;;;;;9.80;3.88;;;;;;;10.29;100.00;100652.38;5012718;28;20037;-75
2023/01/22 05:02:25;;;;;;;12.88;5.25;;;;;;;10.46;100.00;100684.94;5013544;28;20033;-73
2023/01/22 05:04:51;;;;;;;9.00;4.15;;;;;;;10.09;100.00;100636.94;5011607;28;20083;-75
2023/01/22 05:07:16;;;;;;;9.27;4.10;;;;;;;10.59;100.00;100719.91;4986363;28;20066;-75
2023/01/22 05:09:41;;;;;;;9.45;3.30;;;;;;;10.52;100.00;100729.09;5011153;28;20030;-75
2023/01/22 05:12:07;;;;;;;11.02;3.17;;;;;;;10.36;100.00;100716.38;4994607;28;20045;-75
2023/01/22 05:14:32;;;;;;;8.95;3.85;;;;;;;10.26;100.00;100698.72;4993102;28;20029;-74
2023/01/22 05:16:58;;;;;;;7.97;3.22;;;;;;;10.00;100.00;100663.25;4992765;28;20444;-75
2023/01/22 05:19:23;;;;;;;9.43;3.08;;;;;;;10.49;100.00;100744.47;4992588;28;20018;-74
2023/01/22 05:21:49;;;;;;;9.38;3.47;;;;;;;10.18;100.00;100709.59;4992694;28;20023;-76
2023/01/22 05:24:14;;;;;;;11.48;4.22;;;;;;;10.40;100.00;100741.47;4992737;28;20465;-77
2023/01/22 05:26:39;;;;;;;12.63;3.85;;;;;;;10.42;100.00;100744.13;4993135;28;20035;-74
2023/01/22 05:29:05;;;;;;;10.38;3.63;;;;;;;10.48;100.00;100759.88;4993672;28;20088;-74
2023/01/22 05:31:30;;;;;;;8.20;3.47;;;;;;;10.36;100.00;100744.75;4992845;28;20049;-74
2023/01/22 05:33:56;;;;;;;8.88;3.97;;;;;;;10.37;100.00;100751.69;5007576;28;20033;-76
2023/01/22 05:36:21;;;;;;;11.60;3.65;;;;;;;10.46;100.00;100767.56;4992025;28;20126;-76
2023/01/22 05:38:47;;;;;;;9.57;3.33;;;;;;;10.19;100.00;100721.69;4992494;28;20023;-72
2023/01/22 05:41:12;;;;;;;11.48;3.92;;;;;;;10.50;100.00;100779.78;4995578;28;20455;-78
2023/01/22 05:43:38;;;;;;;13.55;4.07;;;;;;;10.35;100.00;100748.13;4992762;28;20511;-74
2023/01/22 05:46:04;;;;;;;12.63;4.32;;;;;;;10.58;100.00;100781.78;5010160;28;20503;-74
2023/01/22 05:48:31;;;;;;;11.52;4.82;;;;;;;10.23;100.00;100708.91;5012653;28;20052;-75
2023/01/22 05:51:02;;;;;;;11.95;4.00;;;;;;;10.27;100.00;100719.41;5012266;28;20049;-74
2023/01/22 05:53:27;;;;;;;11.15;4.30;;;;;;;10.22;100.00;100726.09;5003921;28;20509;-74
2023/01/22 05:55:52;;;;;;;11.93;3.42;;;;;;;10.40;100.00;100753.53;5012265;28;20097;-74
2023/01/22 05:58:18;;;;;;;10.52;3.80;;;;;;;10.56;100.00;100781.72;5008772;28;20096;-75
2023/01/22 06:00:43;;;;;;;15.57;5.07;;;;;;;10.13;100.00;100711.09;5006515;28;20030;-77
2023/01/22 06:03:09;;;;;;;8.75;4.05;;;;;;;10.63;100.00;100807.00;5005499;28;20030;-77
2023/01/22 06:05:34;;;;;;;11.85;3.78;;;;;;;10.59;100.00;100815.44;5006764;28;20033;-77
2023/01/22 06:08:00;;;;;;;12.55;4.05;;;;;;;10.07;100.00;100718.56;5003827;28;20120;-78
2023/01/22 06:10:25;;;;;;;9.65;3.88;;;;;;;10.06;100.00;100724.53;4991283;28;20022;-79
2023/01/22 06:12:50;;;;;;;10.38;4.18;;;;;;;10.49;100.00;100809.00;4991973;28;20026;-78
2023/01/22 06:15:16;;;;;;;10.95;5.05;;;;;;;10.11;100.00;100742.81;4991743;28;20465;-78
2023/01/22 06:17:41;;;;;;;8.57;5.65;;;;;;;10.57;100.00;100818.78;4991749;28;20030;-78
2023/01/22 06:20:27;;;;;;;11.35;5.00;;;;;;;10.50;100.00;100826.25;4992008;28;20045;-79
2023/01/22 06:22:52;;;;;;;10.00;3.92;;;;;;;10.44;100.00;100820.84;4981129;28;20042;-75
2023/01/22 06:25:19;;;;;;;12.10;4.68;;;;;;;10.37;100.00;100816.22;4969377;28;20097;-77
2023/01/22 06:27:45;;;;;;;10.25;4.32;;;;;;;10.47;100.00;100841.59;4970179;28;20058;-76
2023/01/22 06:30:10;;;;;;;8.75;4.15;;;;;;;10.24;100.00;100806.13;4969307;28;20038;-77
2023/01/22 06:32:36;;;;;;;15.13;4.45;;;;;;;10.35;100.00;100841.03;4969024;28;20038;-75
2023/01/22 06:35:01;;;;;;;12.13;4.28;;;;;;;9.75;100.00;100746.41;4969218;28;20030;-76
2023/01/22 06:37:27;;;;;;;10.93;4.05;;;;;;;10.12;100.00;100817.69;4969156;28;20058;-76
2023/01/22 06:39:52;;;;;;;10.70;4.78;;;;;;;10.13;100.00;100829.78;4969217;28;20102;-75
2023/01/22 06:42:18;;;;;;;10.77;4.00;;;;;;;9.95;100.00;100803.16;4973522;28;20046;-75
2023/01/22 06:44:43;;;;;;;11.55;3.95;;;;;;;10.24;100.00;100862.91;4969242;28;20027;-75
2023/01/22 06:47:08;;;;;;;10.13;4.15;;;;;;;9.88;100.00;100809.72;4968640;28;20050;-73
2023/01/22 06:49:34;;;;;;;11.77;4.65;;;;;;;10.17;100.00;100851.44;4969257;28;20425;-73
2023/01/22 06:51:59;;;;;;;9.50;4.47;;;;;;;10.24;100.00;100862.91;4969088;28;20038;-75
2023/01/22 06:54:24;;;;;;;12.55;4.65;;;;;;;10.20;100.00;100854.13;4984857;28;20049;-74
2023/01/22 06:56:50;;;;;;;12.00;4.68;;;;;;;10.28;100.00;100872.53;4990625;28;20022;-74
2023/01/22 06:59:16;;;;;;;12.52;5.25;;;;;;;10.09;100.00;100848.50;4990362;28;20504;-75
2023/01/22 07:01:41;;;;;;;9.80;4.63;;;;;;;10.16;100.00;100853.13;4990481;28;20026;-75
2023/01/22 07:04:07;;;;;;;10.27;4.70;;;;;;;10.12;100.00;100855.47;4990677;28;20023;-77
2023/01/22 07:06:32;;;;;;;9.18;3.97;;;;;;;10.27;100.00;100873.34;4990550;28;20037;-74
2023/01/22 07:08:57;;;;;;;10.93;4.50;;;;;;;10.25;100.00;100873.28;4990517;28;20038;-75
2023/01/22 07:11:23;;;;;;;11.30;4.43;;;;;;;10.38;100.00;100890.25;4990850;28;20069;-74
2023/01/22 07:13:48;;;;;;;9.82;4.38;;;;;;;10.08;100.00;100828.69;4990746;28;20046;-75
2023/01/22 07:16:14;;;;;;;11.43;4.55;;;;;;;10.53;100.00;100902.97;4990104;28;20096;-74
2023/01/22 07:18:39;;;;;;;14.02;5.75;;;;;;;10.53;100.00;100887.47;4990262;28;20403;-77
2023/01/22 07:21:05;;;;;;;18.38;6.63;;;;;;;10.61;100.00;100901.56;4990100;28;20042;-74
2023/01/22 07:23:31;;;;;;;11.30;5.57;;;;;;;10.38;100.00;100885.09;4990697;28;20101;-75
2023/01/22 07:25:56;;;;;;;16.20;6.35;;;;;;;10.51;100.00;100915.78;4990222;28;20026;-75
2023/01/22 07:28:22;;;;;;;13.65;6.13;;;;;;;10.50;100.00;100918.28;4991265;28;20078;-74
2023/01/22 07:30:47;;;;;;;17.23;6.03;;;;;;;9.85;100.00;100832.78;5009091;28;20456;-76
2023/01/22 07:33:14;;;;;;;14.38;6.70;;;;;;;10.19;100.00;100898.81;5011099;28;20037;-76
2023/01/22 07:35:39;;;;;;;14.65;5.18;;;;;;;9.89;100.00;100852.75;5011235;28;20065;-76
2023/01/22 07:38:06;;;;;;;11.75;6.60;;;;;;;10.23;100.00;100907.56;5011159;28;20050;-76
2023/01/22 07:40:32;;;;;;;12.65;6.50;;;;;;;10.21;100.00;100904.94;5011062;28;20387;-76
2023/01/22 07:42:57;;;;;;;13.32;6.82;;;;;;;10.12;100.00;100915.72;5011080;28;20104;-76
2023/01/22 07:45:24;;;;;;;9.82;5.75;;;;;;;10.26;100.00;100949.03;5010432;28;20114;-77
2023/01/22 07:47:58;;;;;;;13.88;5.28;;;;;;;10.09;100.00;100940.50;5011092;28;20108;-76
2023/01/22 07:50:27;;;;;;;15.00;5.53;;;;;;;10.11;100.00;100944.91;4998425;28;20038;-76
2023/01/22 07:52:53;;;;;;;16.15;7.22;;;;;;;10.24;100.00;100955.78;5005433;28;20036;-74
2023/01/22 07:55:18;;;;;;;19.90;11.05;;;;;;;10.28;100.00;100962.84;5010186;28;20494;-76
2023/01/22 07:57:44;;;;;;;21.83;12.15;;;;;;;10.29;100.00;100960.38;5009895;28;20053;-78
2023/01/22 08:00:11;;;;;;;23.65;12.68;;;;;;;10.29;100.00;100960.38;5008972;28;20034;-75
2023/01/22 08:02:38;;;;;;;16.05;9.70;;;;;;;10.12;100.00;100941.53;5016308;28;20500;-79
2023/01/22 08:05:06;;;;;;;19.98;8.35;;;;;;;10.34;100.00;100968.31;4999558;28;20120;-76
2023/01/22 08:07:31;;;;;;;13.00;6.53;;;;;;;10.18;100.00;100957.28;5008015;28;20038;-74
2023/01/22 08:09:57;;;;;;;17.25;6.93;;;;;;;10.20;100.00;100971.16;5010485;28;20373;-74
2023/01/22 08:12:22;;;;;;;17.40;8.25;;;;;;;10.15;100.00;100964.00;5010247;28;20125;-74
2023/01/22 08:14:48;;;;;;;18.45;8.45;;;;;;;10.28;100.00;100974.09;5010487;28;20026;-75
2023/01/22 08:17:13;;;;;;;13.15;7.05;;;;;;;10.30;100.00;100971.56;5010857;28;20033;-75
2023/01/22 08:19:39;;;;;;;20.67;11.68;;;;;;;10.31;100.00;100976.78;5010862;28;20523;-75
2023/01/22 08:22:05;;;;;;;30.27;14.82;;;;;;;10.26;100.00;100974.81;5010909;28;20034;-75
2023/01/22 08:24:30;;;;;;;24.25;11.93;;;;;;;10.29;100.00;100986.19;5010815;28;20451;-75
2023/01/22 08:26:56;;;;;;;17.55;8.27;;;;;;;10.21;100.00;100966.88;5010613;28;20042;-76
2023/01/22 08:29:22;;;;;;;12.00;6.10;;;;;;;10.34;100.00;100978.63;5010778;28;20026;-75
2023/01/22 08:31:47;;;;;;;11.50;6.03;;;;;;;10.14;100.00;100939.00;5010618;28;20034;-76
2023/01/22 08:34:12;;;;;;;14.77;6.55;;;;;;;10.27;100.00;100961.09;5014528;28;20026;-75
2023/01/22 08:36:38;;;;;;;13.23;6.90;;;;;;;10.39;100.00;100977.16;5012997;28;20080;-75
2023/01/22 08:39:03;;;;;;;15.48;6.38;;;;;;;10.13;100.00;100945.88;5014422;28;20038;-75
2023/01/22 08:41:29;;;;;;;13.95;6.93;;;;;;;10.43;100.00;100988.53;5014082;28;20038;-75
2023/01/22 08:43:55;;;;;;;22.00;9.20;;;;;;;10.30;100.00;100975.00;5014456;28;20057;-75
2023/01/22 08:46:21;;;;;;;18.48;8.65;;;;;;;10.41;100.00;100991.03;5013791;28;20105;-75
2023/01/22 08:48:47;;;;;;;15.93;8.32;;;;;;;10.46;100.00;101001.59;5014167;28;20034;-76
2023/01/22 08:51:13;;;;;;;13.90;7.93;;;;;;;9.93;100.00;100939.78;5014192;28;20033;-76
2023/01/22 08:53:38;;;;;;;18.52;9.50;;;;;;;9.93;100.00;100942.38;5014278;28;20026;-76
2023/01/22 08:56:05;;;;;;;17.90;9.57;;;;;;;10.18;100.00;100990.81;5013663;28;20021;-77
2023/01/22 08:58:30;;;;;;;18.55;8.80;;;;;;;9.81;100.00;100946.94;5013930;28;20033;-76
2023/01/22 09:00:55;;;;;;;15.90;9.50;;;;;;;10.18;100.00;100993.41;5013556;28;20408;-76
2023/01/22 09:03:21;;;;;;;14.52;9.35;;;;;;;10.19;100.00;100995.19;5012705;28;20381;-77
2023/01/22 09:05:46;;;;;;;14.20;8.07;;;;;;;10.28;100.00;101009.31;5013910;28;20510;-77
2023/01/22 09:08:12;;;;;;;16.20;8.55;;;;;;;10.35;100.00;101024.28;5013817;28;20037;-77
2023/01/22 09:10:37;;;;;;;16.67;9.30;;;;;;;10.13;100.00;100983.66;5013961;28;20026;-76
2023/01/22 09:13:03;;;;;;;16.73;8.35;;;;;;;10.40;100.00;101030.56;5013599;28;20037;-76
2023/01/22 09:15:28;;;;;;;16.35;8.35;;;;;;;9.96;100.00;100951.94;5013713;28;20037;-77
2023/01/22 09:17:54;;;;;;;13.48;6.28;;;;;;;10.32;100.00;101017.28;5013594;28;20030;-76
2023/01/22 09:20:20;;;;;;;15.07;8.02;;;;;;;10.44;100.00;101029.00;5011287;28;20046;-76
2023/01/22 09:22:47;;;;;;;17.00;10.23;;;;;;;10.15;100.00;100987.22;5013370;28;20022;-76
2023/01/22 09:25:14;;;;;;;14.20;8.55;;;;;;;10.31;100.00;101012.91;5009305;28;20042;-77
2023/01/22 09:27:40;;;;;;;15.48;6.72;;;;;;;10.12;100.00;100990.53;5013272;28;20498;-77
2023/01/22 09:30:06;;;;;;;12.90;5.65;;;;;;;9.83;100.00;100947.88;5013143;28;20030;-76
2023/01/22 09:32:31;;;;;;;14.65;6.00;;;;;;;10.36;100.00;101033.81;5013156;28;20033;-76
2023/01/22 09:34:57;;;;;;;13.50;7.13;;;;;;;9.94;100.00;100962.16;5013199;28;20107;-76
2023/01/22 09:37:24;;;;;;;15.43;7.25;;;;;;;10.32;100.00;101027.59;5012957;28;20042;-76
2023/01/22 09:39:49;;;;;;;13.93;7.25;;;;;;;10.26;100.00;101005.78;5012814;28;20046;-76
2023/01/22 09:42:39;;;;;;;14.43;6.82;;;;;;;10.45;100.00;101028.19;5013262;28;20030;-77
2023/01/22 09:45:15;;;;;;;13.32;6.05;;;;;;;10.26;100.00;100987.72;5012664;28;20022;-77
2023/01/22 09:47:47;;;;;;;14.40;5.82;;;;;;;10.41;100.00;101013.41;5013119;28;20044;-77
2023/01/22 09:50:25;;;;;;;11.88;5.63;;;;;;;10.52;100.00;101023.38;5013476;28;20034;-76
2023/01/22 09:52:52;;;;;;;15.93;5.70;;;;;;;10.60;100.00;101030.59;5012929;28;20424;-76
2023/01/22 09:55:22;;;;;;;18.88;6.03;;;;;;;10.59;100.00;101023.66;5012993;28;20097;-76
2023/01/22 09:57:50;;;;;;;10.73;6.65;;;;;;;10.40;100.00;100968.63;5013041;28;20037;-76
2023/01/22 10:00:21;;;;;;;12.68;6.32;;;;;;;10.69;100.00;101018.09;5011460;28;20038;-77
2023/01/22 10:02:53;;;;;;;14.40;6.88;;;;;;;10.63;100.00;101030.72;5012852;28;20033;-77
2023/01/22 10:05:27;;;;;;;16.77;7.93;;;;;;;10.68;100.00;101032.72;5012826;28;20032;-76
2023/01/22 10:07:59;;;;;;;16.77;5.75;;;;;;;10.71;100.00;101026.81;5012361;28;20030;-76
2023/01/22 10:10:27;;;;;;;9.68;5.18;;;;;;;10.50;100.00;100994.06;5012732;28;20030;-76
2023/01/22 10:12:59;;;;;;;11.00;5.22;;;;;;;10.64;100.00;101025.66;5011944;28;20404;-77
2023/01/22 10:15:25;;;;;;;12.35;5.75;;;;;;;10.46;100.00;100979.22;5012797;28;20034;-77
2023/01/22 10:17:54;;;;;;;10.15;5.05;;;;;;;10.20;100.00;100918.66;5012258;28;20507;-76
2023/01/22 10:20:21;;;;;;;13.88;6.05;;;;;;;10.76;100.00;101004.66;5012608;28;20043;-76
2023/01/22 10:22:47;;;;;;;13.65;7.38;;;;;;;10.31;100.00;100940.66;5010876;28;20507;-77
2023/01/22 10:25:15;;;;;;;14.32;7.03;;;;;;;10.20;100.00;100932.44;5012055;28;20480;-76
2023/01/22 10:27:40;;;;;;;13.25;7.15;;;;;;;10.45;100.00;100972.28;5011847;28;20484;-77
2023/01/22 10:30:22;;;;;;;15.88;7.82;;;;;;;10.61;100.00;101014.31;5012303;28;20121;-76
2023/01/22 10:33:03;;;;;;;19.02;10.82;;;;;;;10.41;100.00;100980.72;5012235;28;20463;-77
2023/01/22 10:35:32;;;;;;;14.13;7.80;;;;;;;10.17;100.00;100945.19;5010802;28;20040;-76
2023/01/22 10:37:59;;;;;;;11.70;5.82;;;;;;;10.35;100.00;100957.16;5012160;28;20061;-76
2023/01/22 10:40:26;;;;;;;16.38;5.57;;;;;;;10.64;100.00;100996.34;5011816;28;20030;-76
2023/01/22 10:43:16;;;;;;;14.75;5.72;;;;;;;10.69;100.00;100997.44;5011786;28;20049;-76
2023/01/22 10:45:58;;;;;;;13.73;5.15;;;;;;;10.29;100.00;100924.25;5011987;28;20022;-76
2023/01/22 10:48:24;;;;;;;12.10;5.20;;;;;;;10.72;100.00;100989.84;5011921;28;20030;-76
2023/01/22 10:51:15;;;;;;;13.07;5.05;;;;;;;10.89;100.00;100998.34;5012235;28;20030;-76
2023/01/22 10:53:51;;;;;;;12.40;5.47;;;;;;;10.94;100.00;100995.94;5012139;28;20022;-75
2023/01/22 10:56:27;;;;;;;15.55;5.78;;;;;;;11.03;100.00;100988.63;5010974;28;20061;-75
2023/01/22 10:58:54;;;;;;;10.45;4.95;;;;;;;11.04;100.00;100984.31;5011961;28;20084;-76
2023/01/22 11:01:41;;;;;;;11.93;6.18;;;;;;;11.20;100.00;100989.31;5010394;28;20046;-75
2023/01/22 11:04:20;;;;;;;16.65;6.68;;;;;;;11.24;100.00;100978.31;5011587;28;20451;-76
2023/01/22 11:07:17;;;;;;;14.30;7.53;;;;;;;11.45;100.00;100988.69;5011673;28;20030;-76
2023/01/22 11:09:58;;;;;;;26.85;15.63;;;;;;;11.49;100.00;100980.22;5011671;28;20050;-75
2023/01/22 11:12:31;;;;;;;21.70;14.32;;;;;;;11.55;100.00;100979.59;5011461;28;20018;-75
2023/01/22 11:15:15;;;;;;;14.00;5.75;;;;;;;11.59;100.00;100985.75;5011672;28;20030;-75
2023/01/22 11:17:54;;;;;;;11.57;5.15;;;;;;;11.23;100.00;100924.00;5011439;28;20030;-75
2023/01/22 11:20:32;;;;;;;14.95;5.00;;;;;;;11.64;100.00;100990.31;5011623;28;20029;-75